createdAt,value
2019-01-14T00:01:02.513Z,7.00
2019-01-14T00:03:33.335Z,6.90
2019-01-14T00:06:09.930Z,6.90
2019-01-14T00:08:34.569Z,6.90
2019-01-14T00:11:04.533Z,6.80
2019-01-14T00:13:34.253Z,6.80
2019-01-14T00:16:04.052Z,6.80
2019-01-14T00:18:33.756Z,6.80
2019-01-14T00:21:03.607Z,6.80
2019-01-14T00:23:33.327Z,6.80
2019-01-14T00:26:03.100Z,6.80
2019-01-14T00:28:32.739Z,6.70
2019-01-14T00:31:02.357Z,6.70
2019-01-14T00:33:31.995Z,6.80
2019-01-14T00:36:01.623Z,6.80
2019-01-14T00:38:31.906Z,6.80
2019-01-14T00:41:01.673Z,6.80
2019-01-14T00:43:31.323Z,6.80
2019-01-14T00:46:01.026Z,6.80
2019-01-14T00:48:30.736Z,6.80
2019-01-14T00:51:00.363Z,6.80
2019-01-14T00:53:29.996Z,6.80
2019-01-14T00:55:59.608Z,6.90
2019-01-14T00:58:29.253Z,6.80
2019-01-14T01:00:59.035Z,6.80
2019-01-14T01:03:28.812Z,6.90
2019-01-14T01:05:58.421Z,6.90
2019-01-14T01:08:28.063Z,6.90
2019-01-14T01:10:57.801Z,6.90
2019-01-14T01:13:27.440Z,6.90
2019-01-14T01:15:57.064Z,6.70
2019-01-14T01:18:26.702Z,6.70
2019-01-14T01:20:56.302Z,6.80
2019-01-14T01:23:25.940Z,6.80
2019-01-14T01:25:55.582Z,6.80
2019-01-14T01:28:25.220Z,6.70
2019-01-14T01:30:54.881Z,6.80
2019-01-14T01:33:24.548Z,6.80
2019-01-14T01:35:54.165Z,6.80
2019-01-14T01:38:23.813Z,6.80
2019-01-14T01:40:53.497Z,6.80
2019-01-14T01:43:23.146Z,6.90
2019-01-14T01:45:52.765Z,6.80
2019-01-14T01:48:22.578Z,6.80
2019-01-14T01:50:52.349Z,6.90
2019-01-14T01:53:21.991Z,6.80
2019-01-14T01:55:51.612Z,6.80
2019-01-14T01:58:21.265Z,6.80
2019-01-14T02:00:52.677Z,6.70
2019-01-14T02:03:22.246Z,6.50
2019-01-14T02:05:51.937Z,6.40
2019-01-14T02:08:21.587Z,6.30
2019-01-14T02:10:51.361Z,6.00
2019-01-14T02:13:21.001Z,5.90
2019-01-14T02:15:50.685Z,5.80
2019-01-14T02:18:20.287Z,5.90
2019-01-14T02:20:49.913Z,5.90
2019-01-14T02:23:19.561Z,5.90
2019-01-14T02:25:49.322Z,5.70
2019-01-14T02:28:18.964Z,5.60
2019-01-14T02:30:48.671Z,5.50
2019-01-14T02:33:18.310Z,5.60
2019-01-14T02:35:48.093Z,5.60
2019-01-14T02:38:18.106Z,5.50
2019-01-14T02:40:47.850Z,5.50
2019-01-14T02:43:17.530Z,5.60
2019-01-14T02:45:47.170Z,5.70
2019-01-14T02:48:16.871Z,5.70
2019-01-14T02:50:46.562Z,5.60
2019-01-14T02:53:16.179Z,5.70
2019-01-14T02:55:45.821Z,5.70
2019-01-14T02:58:15.442Z,5.70
2019-01-14T03:00:45.253Z,5.80
2019-01-14T03:03:14.871Z,5.80
2019-01-14T03:05:44.514Z,5.80
2019-01-14T03:08:14.202Z,5.80
2019-01-14T03:10:43.849Z,5.80
2019-01-14T03:13:13.470Z,5.90
2019-01-14T03:15:43.136Z,5.90
2019-01-14T03:18:12.754Z,5.90
2019-01-14T03:20:42.406Z,5.90
2019-01-14T03:23:12.022Z,5.90
2019-01-14T03:25:41.687Z,5.90
2019-01-14T03:28:11.370Z,5.80
2019-01-14T03:30:41.019Z,5.80
2019-01-14T03:33:10.649Z,5.80
2019-01-14T03:35:40.282Z,5.90
2019-01-14T03:38:09.981Z,5.90
2019-01-14T03:40:39.721Z,5.80
2019-01-14T03:43:09.410Z,5.80
2019-01-14T03:45:39.055Z,5.70
2019-01-14T03:48:08.670Z,5.70
2019-01-14T03:50:38.312Z,5.60
2019-01-14T03:53:07.939Z,5.70
2019-01-14T03:55:37.647Z,5.60
2019-01-14T03:58:07.273Z,5.60
2019-01-14T04:00:37.098Z,5.60
2019-01-14T04:03:06.714Z,5.60
2019-01-14T04:05:36.364Z,5.70
2019-01-14T04:08:06.049Z,5.70
2019-01-14T04:10:35.701Z,5.70
2019-01-14T04:13:05.326Z,5.70
2019-01-14T04:15:35.041Z,5.70
2019-01-14T04:18:04.916Z,5.80
2019-01-14T04:20:34.618Z,5.80
2019-01-14T04:23:04.316Z,5.80
2019-01-14T04:25:34.900Z,5.70
2019-01-14T04:28:04.543Z,5.70
2019-01-14T04:30:34.194Z,5.70
2019-01-14T04:33:03.822Z,5.70
2019-01-14T04:35:33.473Z,5.70
2019-01-14T04:38:03.203Z,6.20
2019-01-14T04:40:33.038Z,6.60
2019-01-14T04:43:04.446Z,6.70
2019-01-14T04:45:35.170Z,6.70
2019-01-14T04:48:04.974Z,6.50
2019-01-14T04:50:34.788Z,6.40
2019-01-14T04:53:04.501Z,6.60
2019-01-14T04:55:34.116Z,6.60
2019-01-14T04:58:04.005Z,6.60
2019-01-14T05:00:33.734Z,6.40
2019-01-14T05:03:03.376Z,6.20
2019-01-14T05:05:33.103Z,6.20
2019-01-14T05:08:02.749Z,6.20
2019-01-14T05:10:33.354Z,6.10
2019-01-14T05:13:03.012Z,6.00
2019-01-14T05:15:36.950Z,6.00
2019-01-14T05:18:06.889Z,6.00
2019-01-14T05:20:36.656Z,5.90
2019-01-14T05:23:06.373Z,5.90
2019-01-14T05:25:36.622Z,5.90
2019-01-14T05:28:06.233Z,5.90
2019-01-14T05:30:36.040Z,5.80
2019-01-14T05:33:05.695Z,5.80
2019-01-14T05:35:35.316Z,5.80
2019-01-14T05:38:05.336Z,5.80
2019-01-14T05:40:34.959Z,5.70
2019-01-14T05:43:04.608Z,5.70
2019-01-14T05:45:34.310Z,5.70
2019-01-14T05:48:03.963Z,5.50
2019-01-14T05:50:33.650Z,5.50
2019-01-14T05:53:03.293Z,5.50
2019-01-14T05:55:32.913Z,5.50
2019-01-14T05:58:02.632Z,5.40
2019-01-14T06:00:34.738Z,5.40
2019-01-14T06:03:04.439Z,5.40
2019-01-14T06:05:34.096Z,5.50
2019-01-14T06:08:03.737Z,5.50
2019-01-14T06:10:33.367Z,6.00
2019-01-14T06:13:03.001Z,5.90
2019-01-14T06:15:32.617Z,5.70
2019-01-14T06:18:02.257Z,5.60
2019-01-14T06:20:32.056Z,5.50
2019-01-14T06:23:01.696Z,5.50
2019-01-14T06:25:31.308Z,5.40
2019-01-14T06:28:00.952Z,5.40
2019-01-14T06:30:30.956Z,5.30
2019-01-14T06:33:00.603Z,5.30
2019-01-14T06:35:30.455Z,5.40
2019-01-14T06:38:00.264Z,5.30
2019-01-14T06:40:30.082Z,5.30
2019-01-14T06:42:59.733Z,5.40
2019-01-14T06:45:29.353Z,5.40
2019-01-14T06:47:59.158Z,5.40
2019-01-14T06:50:28.812Z,5.30
2019-01-14T06:52:58.448Z,5.30
2019-01-14T06:55:28.084Z,5.30
2019-01-14T06:57:57.788Z,5.30
2019-01-14T07:00:28.333Z,5.30
2019-01-14T07:02:58.173Z,5.20
2019-01-14T07:05:27.796Z,5.20
2019-01-14T07:07:59.890Z,5.20
2019-01-14T07:10:29.420Z,5.20
2019-01-14T07:12:59.036Z,5.20
2019-01-14T07:15:28.702Z,5.30
2019-01-14T07:17:58.316Z,5.30
2019-01-14T07:20:28.304Z,5.30
2019-01-14T07:22:57.920Z,5.30
2019-01-14T07:25:27.571Z,5.40
2019-01-14T07:27:57.186Z,5.40
2019-01-14T07:30:27.045Z,5.30
2019-01-14T07:32:56.676Z,5.50
2019-01-14T07:35:26.381Z,6.40
2019-01-14T07:37:56.164Z,6.30
2019-01-14T07:40:28.367Z,6.00
2019-01-14T07:42:58.698Z,6.00
2019-01-14T07:45:28.333Z,5.90
2019-01-14T07:47:58.034Z,5.90
2019-01-14T07:50:27.929Z,5.80
2019-01-14T07:52:57.548Z,5.80
2019-01-14T07:55:27.354Z,5.80
2019-01-14T07:57:56.968Z,5.80
2019-01-14T08:00:26.781Z,5.80
2019-01-14T08:02:56.400Z,5.70
2019-01-14T08:05:26.416Z,5.80
2019-01-14T08:07:56.168Z,5.80
2019-01-14T08:10:25.904Z,5.80
2019-01-14T08:12:55.548Z,5.90
2019-01-14T08:15:25.191Z,5.90
2019-01-14T08:17:54.968Z,5.90
2019-01-14T08:20:24.925Z,5.90
2019-01-14T08:22:54.540Z,5.90
2019-01-14T08:25:24.754Z,5.90
2019-01-14T08:27:54.613Z,5.90
2019-01-14T08:30:25.012Z,5.90
2019-01-14T08:32:54.764Z,5.90
2019-01-14T08:35:26.018Z,5.90
2019-01-14T08:37:55.703Z,5.90
2019-01-14T08:40:25.441Z,5.90
2019-01-14T08:42:55.124Z,5.80
2019-01-14T08:45:24.762Z,5.90
2019-01-14T08:47:54.376Z,6.00
2019-01-14T08:50:24.301Z,6.00
2019-01-14T08:52:53.908Z,6.00
2019-01-14T08:55:23.717Z,6.00
2019-01-14T08:57:54.765Z,6.00
2019-01-14T09:00:24.850Z,6.00
2019-01-14T09:02:54.556Z,6.00
2019-01-14T09:05:24.331Z,5.90
2019-01-14T09:07:53.957Z,5.90
2019-01-14T09:10:26.894Z,5.90
2019-01-14T09:12:56.518Z,6.50
2019-01-14T09:15:26.173Z,7.50
2019-01-14T09:18:02.404Z,7.10
2019-01-14T09:20:27.225Z,6.80
2019-01-14T09:22:56.841Z,6.70
2019-01-14T09:25:26.479Z,6.50
2019-01-14T09:27:56.171Z,6.40
2019-01-14T09:30:26.041Z,6.20
2019-01-14T09:32:55.994Z,6.30
2019-01-14T09:35:25.625Z,6.30
2019-01-14T09:37:55.241Z,6.50
2019-01-14T09:40:25.422Z,6.60
2019-01-14T09:42:55.096Z,6.70
2019-01-14T09:45:24.757Z,6.80
2019-01-14T09:47:54.377Z,6.60
2019-01-14T09:50:24.066Z,6.40
2019-01-14T09:52:53.681Z,6.30
2019-01-14T09:55:23.396Z,6.30
2019-01-14T09:57:54.011Z,6.40
2019-01-14T10:00:23.594Z,6.40
2019-01-14T10:02:55.551Z,6.30
2019-01-14T10:05:24.481Z,6.20
2019-01-14T10:07:54.109Z,6.30
2019-01-14T10:10:23.744Z,6.40
2019-01-14T10:12:53.362Z,6.20
2019-01-14T10:15:24.138Z,6.30
2019-01-14T10:17:55.553Z,6.30
2019-01-14T10:20:25.192Z,6.40
2019-01-14T10:22:54.875Z,6.40
2019-01-14T10:25:24.588Z,6.40
2019-01-14T10:27:54.269Z,6.40
2019-01-14T10:30:23.904Z,6.30
2019-01-14T10:32:53.579Z,6.20
2019-01-14T10:35:23.285Z,6.30
2019-01-14T10:37:52.900Z,6.20
2019-01-14T10:40:22.538Z,6.10
2019-01-14T10:42:52.153Z,6.20
2019-01-14T10:45:23.230Z,6.30
2019-01-14T10:47:52.843Z,6.10
2019-01-14T10:50:22.674Z,6.20
2019-01-14T10:52:52.366Z,6.20
2019-01-14T10:55:22.078Z,6.20
2019-01-14T10:57:51.946Z,6.20
2019-01-14T11:00:24.508Z,6.20
2019-01-14T11:02:54.561Z,6.10
2019-01-14T11:05:27.112Z,6.20
2019-01-14T11:07:56.809Z,6.20
2019-01-14T11:10:26.536Z,6.50
2019-01-14T11:12:56.340Z,6.60
2019-01-14T11:15:25.988Z,6.30
2019-01-14T11:17:55.680Z,6.60
2019-01-14T11:20:37.666Z,6.40
2019-01-14T11:23:07.293Z,6.50
2019-01-14T11:25:37.177Z,6.50
2019-01-14T11:28:06.815Z,6.40
2019-01-14T11:30:36.621Z,6.40
2019-01-14T11:33:06.381Z,6.60
2019-01-14T11:35:37.816Z,6.60
2019-01-14T11:38:09.080Z,6.50
2019-01-14T11:40:38.988Z,6.50
2019-01-14T11:43:08.780Z,6.40
2019-01-14T11:45:39.342Z,6.30
2019-01-14T11:48:08.979Z,6.30
2019-01-14T11:50:38.737Z,6.40
2019-01-14T11:53:09.828Z,6.60
2019-01-14T11:55:39.440Z,6.80
2019-01-14T11:58:09.211Z,6.90
2019-01-14T12:00:39.304Z,6.80
2019-01-14T12:03:09.003Z,6.60
2019-01-14T12:05:38.699Z,6.50
2019-01-14T12:08:08.690Z,6.40
2019-01-14T12:10:40.221Z,6.70
2019-01-14T12:13:10.522Z,6.90
2019-01-14T12:15:40.591Z,7.00
2019-01-14T12:18:10.297Z,6.90
2019-01-14T12:20:39.914Z,6.60
2019-01-14T12:23:09.581Z,6.40
2019-01-14T12:25:39.193Z,6.60
2019-01-14T12:28:08.921Z,6.70
2019-01-14T12:30:41.603Z,7.00
2019-01-14T12:33:11.517Z,7.20
2019-01-14T12:35:43.147Z,7.00
2019-01-14T12:38:12.827Z,6.80
2019-01-14T12:40:42.505Z,6.70
2019-01-14T12:43:12.888Z,6.70
2019-01-14T12:45:42.700Z,6.60
2019-01-14T12:48:12.924Z,6.40
2019-01-14T12:50:43.945Z,6.40
2019-01-14T12:53:13.594Z,6.40
2019-01-14T12:55:43.350Z,6.40
2019-01-14T12:58:13.189Z,6.30
2019-01-14T13:00:43.305Z,6.20
2019-01-14T13:03:13.098Z,6.30
2019-01-14T13:05:44.049Z,6.20
2019-01-14T13:08:13.969Z,6.20
2019-01-14T13:10:43.962Z,6.30
2019-01-14T13:13:13.624Z,6.20
2019-01-14T13:15:43.241Z,6.10
2019-01-14T13:18:13.030Z,6.10
2019-01-14T13:20:42.651Z,6.20
2019-01-14T13:23:12.363Z,6.10
2019-01-14T13:25:41.987Z,6.10
2019-01-14T13:28:11.696Z,6.10
2019-01-14T13:30:41.353Z,6.00
2019-01-14T13:33:11.061Z,6.10
2019-01-14T13:35:40.678Z,6.10
2019-01-14T13:38:10.321Z,6.10
2019-01-14T13:40:40.268Z,6.20
2019-01-14T13:43:09.936Z,6.20
2019-01-14T13:45:39.556Z,6.10
2019-01-14T13:48:09.265Z,6.10
2019-01-14T13:50:38.929Z,6.10
2019-01-14T13:53:08.573Z,7.20
2019-01-14T13:55:38.260Z,7.40
2019-01-14T13:58:07.940Z,6.80
2019-01-14T14:00:37.596Z,6.60
2019-01-14T14:03:07.284Z,6.50
2019-01-14T14:05:36.927Z,6.30
2019-01-14T14:08:06.560Z,6.20
2019-01-14T14:10:36.610Z,6.20
2019-01-14T14:13:06.730Z,6.10
2019-01-14T14:15:36.388Z,6.10
2019-01-14T14:18:06.240Z,6.20
2019-01-14T14:20:38.037Z,6.30
2019-01-14T14:23:08.138Z,6.30
2019-01-14T14:25:37.745Z,6.40
2019-01-14T14:28:07.758Z,6.30
2019-01-14T14:30:38.778Z,6.40
2019-01-14T14:33:09.520Z,6.30
2019-01-14T14:35:40.401Z,6.40
2019-01-14T14:38:11.222Z,6.30
2019-01-14T14:40:41.220Z,6.30
2019-01-14T14:43:11.526Z,6.30
2019-01-14T14:45:42.967Z,6.30
2019-01-14T14:48:14.631Z,6.30
2019-01-14T14:50:44.273Z,6.30
2019-01-14T14:53:13.949Z,6.30
2019-01-14T14:55:43.590Z,6.30
2019-01-14T14:58:13.275Z,6.30
2019-01-14T15:00:42.976Z,6.30
2019-01-14T15:03:17.327Z,6.30
2019-01-14T15:05:48.863Z,6.20
2019-01-14T15:08:18.536Z,6.30
2019-01-14T15:10:51.150Z,6.30
2019-01-14T15:13:20.892Z,6.30
2019-01-14T15:15:52.256Z,6.20
2019-01-14T15:18:21.868Z,6.20
2019-01-14T15:20:51.645Z,6.20
2019-01-14T15:23:21.396Z,6.10
2019-01-14T15:25:51.181Z,6.00
2019-01-14T15:28:22.040Z,6.00
2019-01-14T15:30:51.762Z,5.90
2019-01-14T15:33:21.378Z,5.90
2019-01-14T15:35:51.026Z,5.90
2019-01-14T15:38:20.645Z,6.30
2019-01-14T15:40:50.318Z,6.20
2019-01-14T15:43:20.306Z,6.10
2019-01-14T15:45:49.947Z,6.00
2019-01-14T15:48:20.110Z,6.00
2019-01-14T15:50:50.253Z,6.00
2019-01-14T15:53:20.266Z,6.00
2019-01-14T15:55:50.384Z,6.00
2019-01-14T15:58:20.501Z,6.00
2019-01-14T16:00:50.593Z,6.00
2019-01-14T16:03:20.636Z,6.00
2019-01-14T16:05:50.830Z,6.00
2019-01-14T16:08:20.523Z,5.90
2019-01-14T16:10:50.177Z,5.90
2019-01-14T16:13:19.819Z,6.20
2019-01-14T16:15:49.473Z,6.40
2019-01-14T16:18:19.102Z,6.20
2019-01-14T16:20:48.735Z,6.00
2019-01-14T16:23:18.385Z,6.00
2019-01-14T16:25:48.005Z,6.00
2019-01-14T16:28:17.644Z,5.90
2019-01-14T16:30:47.265Z,6.00
2019-01-14T16:33:16.906Z,6.00
2019-01-14T16:35:46.523Z,5.90
2019-01-14T16:38:16.181Z,5.90
2019-01-14T16:40:45.798Z,5.90
2019-01-14T16:43:15.512Z,5.70
2019-01-14T16:45:45.129Z,5.60
2019-01-14T16:48:14.760Z,5.30
2019-01-14T16:50:44.480Z,4.50
2019-01-14T16:53:14.192Z,3.90
2019-01-14T16:55:45.688Z,3.70
2019-01-14T16:58:15.394Z,3.70
2019-01-14T17:00:47.018Z,4.00
2019-01-14T17:03:16.328Z,4.10
2019-01-14T17:05:45.948Z,4.00
2019-01-14T17:08:15.593Z,4.10
2019-01-14T17:10:45.253Z,4.20
2019-01-14T17:13:14.897Z,4.20
2019-01-14T17:15:44.588Z,4.20
2019-01-14T17:18:14.313Z,4.10
2019-01-14T17:20:43.920Z,4.20
2019-01-14T17:23:13.552Z,4.20
2019-01-14T17:25:43.173Z,4.30
2019-01-14T17:28:12.804Z,4.40
2019-01-14T17:30:42.524Z,4.40
2019-01-14T17:33:12.232Z,4.40
2019-01-14T17:35:41.861Z,4.30
2019-01-14T17:38:11.529Z,4.50
2019-01-14T17:40:41.381Z,4.60
2019-01-14T17:43:11.020Z,4.40
2019-01-14T17:45:40.638Z,4.30
2019-01-14T17:48:11.166Z,4.30
2019-01-14T17:50:40.887Z,4.30
2019-01-14T17:53:10.524Z,4.30
2019-01-14T17:55:40.208Z,4.40
2019-01-14T17:58:09.849Z,4.20
2019-01-14T18:00:39.716Z,4.30
2019-01-14T18:03:09.357Z,4.30
2019-01-14T18:05:38.977Z,4.20
2019-01-14T18:08:08.580Z,4.20
2019-01-14T18:10:40.192Z,4.20
2019-01-14T18:13:09.488Z,4.10
2019-01-14T18:15:39.195Z,4.10
2019-01-14T18:18:08.876Z,4.10
2019-01-14T18:20:38.512Z,4.20
2019-01-14T18:23:08.193Z,4.20
2019-01-14T18:25:37.860Z,4.10
2019-01-14T18:28:07.469Z,4.10
2019-01-14T18:30:38.341Z,4.10
2019-01-14T18:33:07.982Z,4.10
2019-01-14T18:35:37.615Z,4.10
2019-01-14T18:38:07.228Z,4.10
2019-01-14T18:40:36.870Z,4.10
2019-01-14T18:43:06.481Z,4.10
2019-01-14T18:45:36.120Z,4.00
2019-01-14T18:48:05.740Z,3.80
2019-01-14T18:50:35.875Z,3.70
2019-01-14T18:53:05.537Z,3.60
2019-01-14T18:55:37.030Z,3.70
2019-01-14T18:58:08.636Z,3.70
2019-01-14T19:00:40.462Z,3.90
2019-01-14T19:03:10.080Z,3.90
2019-01-14T19:05:39.720Z,4.00
2019-01-14T19:08:09.335Z,4.10
2019-01-14T19:10:39.309Z,4.00
2019-01-14T19:13:08.933Z,4.00
2019-01-14T19:15:38.575Z,3.90
2019-01-14T19:18:08.248Z,4.10
2019-01-14T19:20:37.968Z,4.00
2019-01-14T19:23:07.669Z,3.90
2019-01-14T19:25:37.439Z,3.90
2019-01-14T19:28:07.119Z,4.00
2019-01-14T19:30:36.857Z,3.80
2019-01-14T19:33:06.482Z,3.70
2019-01-14T19:35:36.117Z,3.70
2019-01-14T19:38:05.806Z,3.70
2019-01-14T19:40:36.958Z,3.90
2019-01-14T19:43:06.713Z,3.80
2019-01-14T19:45:36.348Z,3.90
2019-01-14T19:48:06.487Z,4.10
2019-01-14T19:50:36.282Z,3.90
2019-01-14T19:53:05.978Z,4.00
2019-01-14T19:55:35.644Z,4.00
2019-01-14T19:58:05.234Z,3.90
2019-01-14T20:00:34.984Z,3.80
2019-01-14T20:03:04.660Z,3.80
2019-01-14T20:05:34.345Z,3.80
2019-01-14T20:08:04.773Z,3.70
2019-01-14T20:10:34.561Z,3.60
2019-01-14T20:13:04.161Z,3.60
2019-01-14T20:15:33.825Z,3.60
2019-01-14T20:18:03.509Z,3.60
2019-01-14T20:20:33.182Z,3.30
2019-01-14T20:23:02.890Z,3.40
2019-01-14T20:25:32.524Z,3.50
2019-01-14T20:28:02.144Z,3.50
2019-01-14T20:30:31.808Z,3.60
2019-01-14T20:33:01.441Z,3.50
2019-01-14T20:35:31.105Z,3.50
2019-01-14T20:38:00.716Z,3.40
2019-01-14T20:40:30.348Z,3.30
2019-01-14T20:43:00.016Z,3.30
2019-01-14T20:45:29.741Z,3.30
2019-01-14T20:47:59.437Z,3.20
2019-01-14T20:50:29.384Z,3.30
2019-01-14T20:52:59.013Z,3.20
2019-01-14T20:55:28.648Z,3.20
2019-01-14T20:57:58.264Z,3.30
2019-01-14T21:00:28.089Z,3.30
2019-01-14T21:02:57.716Z,3.30
2019-01-14T21:05:27.984Z,3.20
2019-01-14T21:07:57.597Z,3.40
2019-01-14T21:10:27.240Z,3.30
2019-01-14T21:12:56.860Z,3.40
2019-01-14T21:15:26.516Z,3.40
2019-01-14T21:17:56.129Z,3.30
2019-01-14T21:20:25.938Z,3.20
2019-01-14T21:22:55.615Z,3.30
2019-01-14T21:25:25.392Z,3.20
2019-01-14T21:27:55.016Z,3.20
2019-01-14T21:30:25.605Z,3.20
2019-01-14T21:32:55.222Z,3.20
2019-01-14T21:35:24.930Z,3.20
2019-01-14T21:37:54.555Z,3.30
2019-01-14T21:40:24.311Z,3.20
2019-01-14T21:42:53.916Z,3.30
2019-01-14T21:45:23.564Z,3.30
2019-01-14T21:47:53.185Z,3.30
2019-01-14T21:50:22.900Z,3.30
2019-01-14T21:52:52.545Z,3.30
2019-01-14T21:55:23.089Z,3.20
2019-01-14T21:57:52.817Z,3.30
2019-01-14T22:00:23.575Z,3.40
2019-01-14T22:02:53.496Z,3.40
2019-01-14T22:05:23.256Z,3.30
2019-01-14T22:07:53.583Z,3.40
2019-01-14T22:10:26.304Z,3.40
2019-01-14T22:12:56.090Z,3.50
2019-01-14T22:15:25.702Z,3.50
2019-01-14T22:17:55.354Z,3.50
2019-01-14T22:20:26.506Z,3.60
2019-01-14T22:22:56.153Z,3.60
2019-01-14T22:25:25.840Z,3.70
2019-01-14T22:27:55.489Z,3.70
2019-01-14T22:30:27.611Z,3.60
2019-01-14T22:32:57.254Z,3.50
2019-01-14T22:35:26.864Z,3.40
2019-01-14T22:37:56.639Z,3.60
2019-01-14T22:40:26.477Z,3.70
2019-01-14T22:42:56.282Z,3.70
2019-01-14T22:45:26.032Z,3.70
2019-01-14T22:47:55.673Z,3.70
2019-01-14T22:50:25.488Z,3.70
2019-01-14T22:52:55.098Z,3.60
2019-01-14T22:55:24.726Z,3.70
2019-01-14T22:57:54.372Z,3.70
2019-01-14T23:00:28.692Z,3.60
2019-01-14T23:02:58.337Z,3.60
2019-01-14T23:05:27.948Z,3.60
2019-01-14T23:07:57.595Z,3.60
2019-01-14T23:10:27.208Z,3.60
2019-01-14T23:12:56.845Z,3.60
2019-01-14T23:15:26.460Z,3.60
2019-01-14T23:17:56.105Z,3.70
2019-01-14T23:20:25.789Z,3.60
2019-01-14T23:22:55.494Z,3.70
2019-01-14T23:25:25.121Z,3.70
2019-01-14T23:27:54.758Z,3.70
2019-01-14T23:30:24.439Z,3.60
2019-01-14T23:32:54.071Z,3.60
2019-01-14T23:35:23.682Z,3.60
2019-01-14T23:37:53.317Z,3.60
2019-01-14T23:40:22.952Z,3.50
2019-01-14T23:42:52.595Z,3.50
2019-01-14T23:45:22.211Z,3.50
2019-01-14T23:47:51.848Z,3.50
2019-01-14T23:50:21.589Z,3.40
2019-01-14T23:52:51.229Z,3.40
2019-01-14T23:55:20.845Z,3.30
2019-01-14T23:57:50.517Z,3.30
